sensor_id;sensor_type;location;lat;lon;timestamp;P1;durP1;ratioP1;P2;durP2;ratioP2
24715;SDS011;12822;50.124;8.678;2022-10-16T00:01:42;8.48;;;5.50;;
24715;SDS011;12822;50.124;8.678;2022-10-16T00:04:09;13.00;;;5.47;;
24715;SDS011;12822;50.124;8.678;2022-10-16T00:06:35;8.98;;;4.78;;
24715;SDS011;12822;50.124;8.678;2022-10-16T00:09:01;9.50;;;5.13;;
24715;SDS011;12822;50.124;8.678;2022-10-16T00:11:28;7.40;;;4.75;;
24715;SDS011;12822;50.124;8.678;2022-10-16T00:13:56;11.98;;;5.30;;
24715;SDS011;12822;50.124;8.678;2022-10-16T00:16:23;9.15;;;5.38;;
24715;SDS011;12822;50.124;8.678;2022-10-16T00:18:49;8.80;;;5.40;;
24715;SDS011;12822;50.124;8.678;2022-10-16T00:21:17;7.38;;;4.72;;
24715;SDS011;12822;50.124;8.678;2022-10-16T00:23:43;10.32;;;4.82;;
24715;SDS011;12822;50.124;8.678;2022-10-16T00:26:10;5.10;;;4.15;;
24715;SDS011;12822;50.124;8.678;2022-10-16T00:28:37;9.73;;;5.85;;
24715;SDS011;12822;50.124;8.678;2022-10-16T00:31:07;10.48;;;6.10;;
24715;SDS011;12822;50.124;8.678;2022-10-16T00:33:33;8.60;;;5.93;;
24715;SDS011;12822;50.124;8.678;2022-10-16T00:36:00;9.85;;;6.05;;
24715;SDS011;12822;50.124;8.678;2022-10-16T00:38:26;7.85;;;5.78;;
24715;SDS011;12822;50.124;8.678;2022-10-16T00:40:52;11.02;;;5.43;;
24715;SDS011;12822;50.124;8.678;2022-10-16T00:46:00;7.35;;;5.40;;
24715;SDS011;12822;50.124;8.678;2022-10-16T00:48:26;9.68;;;4.65;;
24715;SDS011;12822;50.124;8.678;2022-10-16T00:50:53;9.90;;;4.82;;
24715;SDS011;12822;50.124;8.678;2022-10-16T00:53:19;8.68;;;4.60;;
24715;SDS011;12822;50.124;8.678;2022-10-16T00:55:45;8.50;;;5.15;;
24715;SDS011;12822;50.124;8.678;2022-10-16T00:58:11;7.50;;;4.72;;
24715;SDS011;12822;50.124;8.678;2022-10-16T01:00:37;7.05;;;4.20;;
24715;SDS011;12822;50.124;8.678;2022-10-16T01:03:22;8.18;;;4.28;;
24715;SDS011;12822;50.124;8.678;2022-10-16T01:05:54;5.82;;;3.63;;
24715;SDS011;12822;50.124;8.678;2022-10-16T01:08:22;7.78;;;4.32;;
24715;SDS011;12822;50.124;8.678;2022-10-16T01:10:55;12.77;;;4.10;;
24715;SDS011;12822;50.124;8.678;2022-10-16T01:13:42;6.95;;;4.00;;
24715;SDS011;12822;50.124;8.678;2022-10-16T01:21:32;8.38;;;3.50;;
24715;SDS011;12822;50.124;8.678;2022-10-16T01:24:22;8.02;;;3.78;;
24715;SDS011;12822;50.124;8.678;2022-10-16T01:27:02;7.47;;;4.57;;
24715;SDS011;12822;50.124;8.678;2022-10-16T01:31:59;7.38;;;3.85;;
24715;SDS011;12822;50.124;8.678;2022-10-16T01:34:32;8.93;;;4.45;;
24715;SDS011;12822;50.124;8.678;2022-10-16T01:37:08;10.07;;;4.10;;
24715;SDS011;12822;50.124;8.678;2022-10-16T01:39:35;9.70;;;3.67;;
24715;SDS011;12822;50.124;8.678;2022-10-16T01:42:06;5.70;;;3.20;;
24715;SDS011;12822;50.124;8.678;2022-10-16T01:44:33;8.38;;;3.03;;
24715;SDS011;12822;50.124;8.678;2022-10-16T01:47:01;13.93;;;3.70;;
24715;SDS011;12822;50.124;8.678;2022-10-16T01:49:30;6.07;;;3.20;;
24715;SDS011;12822;50.124;8.678;2022-10-16T01:51:57;4.80;;;3.13;;
24715;SDS011;12822;50.124;8.678;2022-10-16T01:54:27;5.85;;;2.95;;
24715;SDS011;12822;50.124;8.678;2022-10-16T01:56:54;5.28;;;3.00;;
24715;SDS011;12822;50.124;8.678;2022-10-16T01:59:21;7.80;;;2.88;;
24715;SDS011;12822;50.124;8.678;2022-10-16T02:01:50;7.88;;;2.92;;
24715;SDS011;12822;50.124;8.678;2022-10-16T02:04:20;6.65;;;2.58;;
24715;SDS011;12822;50.124;8.678;2022-10-16T02:06:47;5.30;;;2.40;;
24715;SDS011;12822;50.124;8.678;2022-10-16T02:09:13;5.68;;;2.17;;
24715;SDS011;12822;50.124;8.678;2022-10-16T02:11:41;6.35;;;2.47;;
24715;SDS011;12822;50.124;8.678;2022-10-16T02:14:07;4.65;;;2.38;;
24715;SDS011;12822;50.124;8.678;2022-10-16T02:16:43;5.82;;;1.75;;
24715;SDS011;12822;50.124;8.678;2022-10-16T02:19:10;7.95;;;2.33;;
24715;SDS011;12822;50.124;8.678;2022-10-16T02:29:07;8.55;;;2.10;;
24715;SDS011;12822;50.124;8.678;2022-10-16T02:31:36;3.13;;;1.92;;
24715;SDS011;12822;50.124;8.678;2022-10-16T02:34:04;5.50;;;1.92;;
24715;SDS011;12822;50.124;8.678;2022-10-16T02:36:31;2.28;;;1.85;;
24715;SDS011;12822;50.124;8.678;2022-10-16T02:38:58;2.22;;;1.40;;
24715;SDS011;12822;50.124;8.678;2022-10-16T02:41:26;3.75;;;1.40;;
24715;SDS011;12822;50.124;8.678;2022-10-16T02:43:52;2.20;;;1.30;;
24715;SDS011;12822;50.124;8.678;2022-10-16T02:46:19;3.60;;;1.50;;
24715;SDS011;12822;50.124;8.678;2022-10-16T02:48:45;5.20;;;1.45;;
24715;SDS011;12822;50.124;8.678;2022-10-16T02:51:11;2.10;;;1.38;;
24715;SDS011;12822;50.124;8.678;2022-10-16T02:53:37;4.30;;;1.20;;
24715;SDS011;12822;50.124;8.678;2022-10-16T02:56:04;3.83;;;1.40;;
24715;SDS011;12822;50.124;8.678;2022-10-16T02:58:30;9.63;;;1.73;;
24715;SDS011;12822;50.124;8.678;2022-10-16T03:00:56;4.03;;;1.42;;
24715;SDS011;12822;50.124;8.678;2022-10-16T03:03:22;2.08;;;1.05;;
24715;SDS011;12822;50.124;8.678;2022-10-16T03:05:48;3.63;;;1.20;;
24715;SDS011;12822;50.124;8.678;2022-10-16T03:08:14;2.10;;;1.20;;
24715;SDS011;12822;50.124;8.678;2022-10-16T03:10:40;2.03;;;1.38;;
24715;SDS011;12822;50.124;8.678;2022-10-16T03:13:06;3.67;;;1.77;;
24715;SDS011;12822;50.124;8.678;2022-10-16T03:15:31;2.25;;;1.20;;
24715;SDS011;12822;50.124;8.678;2022-10-16T03:17:58;2.00;;;1.23;;
24715;SDS011;12822;50.124;8.678;2022-10-16T03:20:24;2.42;;;0.98;;
24715;SDS011;12822;50.124;8.678;2022-10-16T03:22:50;4.43;;;1.20;;
24715;SDS011;12822;50.124;8.678;2022-10-16T03:25:16;2.90;;;1.52;;
24715;SDS011;12822;50.124;8.678;2022-10-16T03:27:42;1.83;;;1.30;;
24715;SDS011;12822;50.124;8.678;2022-10-16T03:30:08;3.30;;;1.35;;
24715;SDS011;12822;50.124;8.678;2022-10-16T03:32:34;5.15;;;1.25;;
24715;SDS011;12822;50.124;8.678;2022-10-16T03:35:00;5.00;;;1.50;;
24715;SDS011;12822;50.124;8.678;2022-10-16T03:37:26;3.45;;;1.30;;
24715;SDS011;12822;50.124;8.678;2022-10-16T03:39:52;3.13;;;1.20;;
24715;SDS011;12822;50.124;8.678;2022-10-16T03:42:18;5.35;;;1.50;;
24715;SDS011;12822;50.124;8.678;2022-10-16T03:44:44;7.10;;;1.48;;
24715;SDS011;12822;50.124;8.678;2022-10-16T03:47:10;2.85;;;1.38;;
24715;SDS011;12822;50.124;8.678;2022-10-16T03:49:36;3.50;;;1.73;;
24715;SDS011;12822;50.124;8.678;2022-10-16T03:52:02;4.55;;;1.27;;
24715;SDS011;12822;50.124;8.678;2022-10-16T03:54:28;5.55;;;1.27;;
24715;SDS011;12822;50.124;8.678;2022-10-16T03:56:54;2.70;;;1.30;;
24715;SDS011;12822;50.124;8.678;2022-10-16T03:59:20;2.70;;;1.15;;
24715;SDS011;12822;50.124;8.678;2022-10-16T04:01:46;6.00;;;1.30;;
24715;SDS011;12822;50.124;8.678;2022-10-16T04:04:12;2.95;;;1.70;;
24715;SDS011;12822;50.124;8.678;2022-10-16T04:06:38;4.38;;;1.42;;
24715;SDS011;12822;50.124;8.678;2022-10-16T04:09:04;3.42;;;1.42;;
24715;SDS011;12822;50.124;8.678;2022-10-16T04:11:30;3.60;;;1.45;;
24715;SDS011;12822;50.124;8.678;2022-10-16T04:13:56;3.35;;;1.25;;
24715;SDS011;12822;50.124;8.678;2022-10-16T04:16:22;4.57;;;1.10;;
24715;SDS011;12822;50.124;8.678;2022-10-16T04:18:48;4.07;;;1.33;;
24715;SDS011;12822;50.124;8.678;2022-10-16T04:21:14;2.47;;;1.40;;
24715;SDS011;12822;50.124;8.678;2022-10-16T04:23:40;4.00;;;1.20;;
24715;SDS011;12822;50.124;8.678;2022-10-16T04:26:05;2.67;;;1.30;;
24715;SDS011;12822;50.124;8.678;2022-10-16T04:28:31;5.47;;;1.60;;
24715;SDS011;12822;50.124;8.678;2022-10-16T04:30:58;5.75;;;1.17;;
24715;SDS011;12822;50.124;8.678;2022-10-16T04:33:24;2.60;;;1.30;;
24715;SDS011;12822;50.124;8.678;2022-10-16T04:35:55;1.70;;;1.20;;
24715;SDS011;12822;50.124;8.678;2022-10-16T04:38:21;1.83;;;1.20;;
24715;SDS011;12822;50.124;8.678;2022-10-16T04:40:47;2.28;;;1.42;;
24715;SDS011;12822;50.124;8.678;2022-10-16T04:43:13;3.35;;;1.17;;
24715;SDS011;12822;50.124;8.678;2022-10-16T04:45:39;3.70;;;1.45;;
24715;SDS011;12822;50.124;8.678;2022-10-16T04:48:05;3.45;;;1.40;;
24715;SDS011;12822;50.124;8.678;2022-10-16T04:50:31;2.60;;;1.48;;
24715;SDS011;12822;50.124;8.678;2022-10-16T04:52:57;6.15;;;1.60;;
24715;SDS011;12822;50.124;8.678;2022-10-16T04:55:23;7.10;;;1.60;;
24715;SDS011;12822;50.124;8.678;2022-10-16T04:57:49;3.25;;;1.45;;
24715;SDS011;12822;50.124;8.678;2022-10-16T05:00:33;7.15;;;1.73;;
24715;SDS011;12822;50.124;8.678;2022-10-16T05:03:08;1.63;;;1.50;;
24715;SDS011;12822;50.124;8.678;2022-10-16T05:05:34;4.70;;;1.45;;
24715;SDS011;12822;50.124;8.678;2022-10-16T05:08:01;4.35;;;1.65;;
24715;SDS011;12822;50.124;8.678;2022-10-16T05:10:27;3.97;;;1.30;;
24715;SDS011;12822;50.124;8.678;2022-10-16T05:12:54;4.57;;;1.85;;
24715;SDS011;12822;50.124;8.678;2022-10-16T05:15:20;2.17;;;1.60;;
24715;SDS011;12822;50.124;8.678;2022-10-16T05:17:45;3.65;;;2.00;;
24715;SDS011;12822;50.124;8.678;2022-10-16T05:20:12;5.32;;;1.60;;
24715;SDS011;12822;50.124;8.678;2022-10-16T05:22:38;5.55;;;1.83;;
24715;SDS011;12822;50.124;8.678;2022-10-16T05:25:04;2.25;;;1.50;;
24715;SDS011;12822;50.124;8.678;2022-10-16T05:27:30;2.85;;;1.60;;
24715;SDS011;12822;50.124;8.678;2022-10-16T05:29:56;4.30;;;1.85;;
24715;SDS011;12822;50.124;8.678;2022-10-16T05:32:22;5.32;;;1.58;;
24715;SDS011;12822;50.124;8.678;2022-10-16T05:34:48;3.42;;;1.80;;
24715;SDS011;12822;50.124;8.678;2022-10-16T05:37:14;11.13;;;2.10;;
24715;SDS011;12822;50.124;8.678;2022-10-16T05:39:40;7.07;;;1.80;;
24715;SDS011;12822;50.124;8.678;2022-10-16T05:42:06;5.72;;;1.65;;
24715;SDS011;12822;50.124;8.678;2022-10-16T05:44:32;3.25;;;1.80;;
24715;SDS011;12822;50.124;8.678;2022-10-16T05:46:58;6.18;;;1.48;;
24715;SDS011;12822;50.124;8.678;2022-10-16T05:49:24;2.97;;;1.75;;
24715;SDS011;12822;50.124;8.678;2022-10-16T05:51:50;2.17;;;1.52;;
24715;SDS011;12822;50.124;8.678;2022-10-16T05:54:16;2.70;;;1.73;;
24715;SDS011;12822;50.124;8.678;2022-10-16T05:56:42;6.72;;;2.33;;
24715;SDS011;12822;50.124;8.678;2022-10-16T05:59:08;2.53;;;1.70;;
24715;SDS011;12822;50.124;8.678;2022-10-16T06:01:34;2.85;;;1.85;;
24715;SDS011;12822;50.124;8.678;2022-10-16T06:04:00;5.57;;;2.25;;
24715;SDS011;12822;50.124;8.678;2022-10-16T06:06:27;3.65;;;1.80;;
24715;SDS011;12822;50.124;8.678;2022-10-16T06:08:55;3.10;;;1.33;;
24715;SDS011;12822;50.124;8.678;2022-10-16T06:11:22;7.85;;;1.83;;
24715;SDS011;12822;50.124;8.678;2022-10-16T06:13:49;4.70;;;1.52;;
24715;SDS011;12822;50.124;8.678;2022-10-16T06:16:15;3.08;;;1.75;;
24715;SDS011;12822;50.124;8.678;2022-10-16T06:18:41;2.65;;;1.48;;
24715;SDS011;12822;50.124;8.678;2022-10-16T06:21:17;3.22;;;1.83;;
24715;SDS011;12822;50.124;8.678;2022-10-16T06:23:43;2.67;;;1.60;;
24715;SDS011;12822;50.124;8.678;2022-10-16T06:26:20;3.88;;;1.88;;
24715;SDS011;12822;50.124;8.678;2022-10-16T06:28:59;5.93;;;1.90;;
24715;SDS011;12822;50.124;8.678;2022-10-16T06:31:25;3.50;;;1.73;;
24715;SDS011;12822;50.124;8.678;2022-10-16T06:33:54;6.65;;;1.65;;
24715;SDS011;12822;50.124;8.678;2022-10-16T06:36:36;4.38;;;1.70;;
24715;SDS011;12822;50.124;8.678;2022-10-16T06:39:06;2.88;;;2.00;;
24715;SDS011;12822;50.124;8.678;2022-10-16T06:41:33;4.15;;;1.65;;
24715;SDS011;12822;50.124;8.678;2022-10-16T06:43:59;4.25;;;1.80;;
24715;SDS011;12822;50.124;8.678;2022-10-16T06:46:25;9.32;;;2.55;;
24715;SDS011;12822;50.124;8.678;2022-10-16T06:48:52;5.47;;;2.70;;
24715;SDS011;12822;50.124;8.678;2022-10-16T06:51:19;5.82;;;2.55;;
24715;SDS011;12822;50.124;8.678;2022-10-16T06:53:49;5.05;;;2.60;;
24715;SDS011;12822;50.124;8.678;2022-10-16T06:56:17;5.47;;;3.22;;
24715;SDS011;12822;50.124;8.678;2022-10-16T06:58:44;6.10;;;3.38;;
24715;SDS011;12822;50.124;8.678;2022-10-16T07:01:10;9.02;;;4.53;;
24715;SDS011;12822;50.124;8.678;2022-10-16T07:03:37;15.95;;;7.72;;
24715;SDS011;12822;50.124;8.678;2022-10-16T07:06:04;9.95;;;7.80;;
24715;SDS011;12822;50.124;8.678;2022-10-16T07:08:31;12.95;;;7.25;;
24715;SDS011;12822;50.124;8.678;2022-10-16T07:10:58;12.77;;;8.20;;
24715;SDS011;12822;50.124;8.678;2022-10-16T07:13:24;7.65;;;6.82;;
24715;SDS011;12822;50.124;8.678;2022-10-16T07:15:50;11.85;;;6.50;;
24715;SDS011;12822;50.124;8.678;2022-10-16T07:18:16;7.72;;;6.13;;
24715;SDS011;12822;50.124;8.678;2022-10-16T07:20:42;9.40;;;6.00;;
24715;SDS011;12822;50.124;8.678;2022-10-16T07:23:08;10.80;;;6.47;;
24715;SDS011;12822;50.124;8.678;2022-10-16T07:25:34;10.10;;;5.95;;
24715;SDS011;12822;50.124;8.678;2022-10-16T07:28:00;8.32;;;5.43;;
24715;SDS011;12822;50.124;8.678;2022-10-16T07:30:26;9.98;;;5.22;;
24715;SDS011;12822;50.124;8.678;2022-10-16T07:32:52;9.23;;;5.43;;
24715;SDS011;12822;50.124;8.678;2022-10-16T07:35:18;7.78;;;4.93;;
24715;SDS011;12822;50.124;8.678;2022-10-16T07:37:44;7.13;;;4.32;;
24715;SDS011;12822;50.124;8.678;2022-10-16T07:40:10;8.30;;;4.38;;
24715;SDS011;12822;50.124;8.678;2022-10-16T07:42:36;7.78;;;4.55;;
24715;SDS011;12822;50.124;8.678;2022-10-16T07:45:02;7.50;;;4.57;;
24715;SDS011;12822;50.124;8.678;2022-10-16T07:47:29;8.95;;;4.75;;
24715;SDS011;12822;50.124;8.678;2022-10-16T07:49:55;11.02;;;4.40;;
24715;SDS011;12822;50.124;8.678;2022-10-16T07:52:21;7.25;;;3.95;;
24715;SDS011;12822;50.124;8.678;2022-10-16T07:54:47;6.53;;;3.92;;
24715;SDS011;12822;50.124;8.678;2022-10-16T07:57:13;9.15;;;4.47;;
24715;SDS011;12822;50.124;8.678;2022-10-16T07:59:44;5.63;;;4.35;;
24715;SDS011;12822;50.124;8.678;2022-10-16T08:02:10;8.70;;;3.97;;
24715;SDS011;12822;50.124;8.678;2022-10-16T08:04:36;7.30;;;4.00;;
24715;SDS011;12822;50.124;8.678;2022-10-16T08:07:02;8.82;;;4.35;;
24715;SDS011;12822;50.124;8.678;2022-10-16T08:09:28;7.53;;;4.07;;
24715;SDS011;12822;50.124;8.678;2022-10-16T08:11:54;8.35;;;3.72;;
24715;SDS011;12822;50.124;8.678;2022-10-16T08:14:20;6.88;;;3.83;;
24715;SDS011;12822;50.124;8.678;2022-10-16T08:16:47;5.10;;;3.13;;
24715;SDS011;12822;50.124;8.678;2022-10-16T08:19:13;6.13;;;3.92;;
24715;SDS011;12822;50.124;8.678;2022-10-16T08:21:40;6.85;;;3.50;;
24715;SDS011;12822;50.124;8.678;2022-10-16T08:24:06;6.03;;;2.92;;
24715;SDS011;12822;50.124;8.678;2022-10-16T08:26:32;6.78;;;3.72;;
24715;SDS011;12822;50.124;8.678;2022-10-16T08:28:58;6.75;;;3.10;;
24715;SDS011;12822;50.124;8.678;2022-10-16T08:31:24;5.25;;;3.65;;
24715;SDS011;12822;50.124;8.678;2022-10-16T08:33:52;7.40;;;3.15;;
24715;SDS011;12822;50.124;8.678;2022-10-16T08:36:18;9.77;;;4.47;;
24715;SDS011;12822;50.124;8.678;2022-10-16T08:38:44;6.60;;;4.00;;
24715;SDS011;12822;50.124;8.678;2022-10-16T08:46:21;8.27;;;4.25;;
24715;SDS011;12822;50.124;8.678;2022-10-16T08:48:53;10.27;;;5.25;;
24715;SDS011;12822;50.124;8.678;2022-10-16T08:51:27;9.02;;;4.95;;
24715;SDS011;12822;50.124;8.678;2022-10-16T08:53:56;7.30;;;4.32;;
24715;SDS011;12822;50.124;8.678;2022-10-16T08:56:22;9.05;;;4.47;;
24715;SDS011;12822;50.124;8.678;2022-10-16T08:58:49;7.05;;;4.57;;
24715;SDS011;12822;50.124;8.678;2022-10-16T09:01:17;9.82;;;5.03;;
24715;SDS011;12822;50.124;8.678;2022-10-16T09:16:48;7.88;;;5.05;;
24715;SDS011;12822;50.124;8.678;2022-10-16T09:19:20;6.93;;;5.28;;
24715;SDS011;12822;50.124;8.678;2022-10-16T09:21:48;9.23;;;5.63;;
24715;SDS011;12822;50.124;8.678;2022-10-16T09:24:19;10.25;;;5.85;;
24715;SDS011;12822;50.124;8.678;2022-10-16T09:26:46;12.45;;;5.57;;
24715;SDS011;12822;50.124;8.678;2022-10-16T09:29:13;10.57;;;8.50;;
24715;SDS011;12822;50.124;8.678;2022-10-16T09:31:39;8.68;;;7.70;;
24715;SDS011;12822;50.124;8.678;2022-10-16T09:34:06;8.38;;;6.70;;
24715;SDS011;12822;50.124;8.678;2022-10-16T09:36:38;11.63;;;7.60;;
24715;SDS011;12822;50.124;8.678;2022-10-16T09:39:06;10.73;;;6.95;;
24715;SDS011;12822;50.124;8.678;2022-10-16T09:41:34;12.55;;;6.90;;
24715;SDS011;12822;50.124;8.678;2022-10-16T09:44:01;10.77;;;7.13;;
24715;SDS011;12822;50.124;8.678;2022-10-16T09:46:31;11.20;;;6.97;;
24715;SDS011;12822;50.124;8.678;2022-10-16T09:49:02;8.23;;;6.35;;
24715;SDS011;12822;50.124;8.678;2022-10-16T09:51:35;12.02;;;7.72;;
24715;SDS011;12822;50.124;8.678;2022-10-16T09:54:11;11.23;;;7.70;;
24715;SDS011;12822;50.124;8.678;2022-10-16T09:56:38;10.25;;;7.35;;
24715;SDS011;12822;50.124;8.678;2022-10-16T09:59:15;17.15;;;7.22;;
24715;SDS011;12822;50.124;8.678;2022-10-16T10:01:44;9.80;;;6.88;;
24715;SDS011;12822;50.124;8.678;2022-10-16T10:04:11;9.43;;;6.57;;
24715;SDS011;12822;50.124;8.678;2022-10-16T10:06:40;8.35;;;6.00;;
24715;SDS011;12822;50.124;8.678;2022-10-16T10:11:54;9.80;;;6.15;;
24715;SDS011;12822;50.124;8.678;2022-10-16T10:14:21;11.32;;;6.07;;
24715;SDS011;12822;50.124;8.678;2022-10-16T10:16:48;8.77;;;5.55;;
24715;SDS011;12822;50.124;8.678;2022-10-16T10:19:16;8.55;;;5.43;;
24715;SDS011;12822;50.124;8.678;2022-10-16T10:21:42;7.93;;;4.13;;
24715;SDS011;12822;50.124;8.678;2022-10-16T10:24:12;6.00;;;3.30;;
24715;SDS011;12822;50.124;8.678;2022-10-16T10:26:38;7.65;;;2.80;;
24715;SDS011;12822;50.124;8.678;2022-10-16T10:29:17;4.90;;;2.33;;
24715;SDS011;12822;50.124;8.678;2022-10-16T10:34:31;2.97;;;2.20;;
24715;SDS011;12822;50.124;8.678;2022-10-16T10:37:03;5.28;;;2.30;;
24715;SDS011;12822;50.124;8.678;2022-10-16T10:39:32;3.17;;;2.60;;
24715;SDS011;12822;50.124;8.678;2022-10-16T10:47:15;6.43;;;5.32;;
24715;SDS011;12822;50.124;8.678;2022-10-16T10:54:56;8.13;;;6.75;;
24715;SDS011;12822;50.124;8.678;2022-10-16T10:57:34;10.00;;;5.55;;
24715;SDS011;12822;50.124;8.678;2022-10-16T11:00:06;6.93;;;4.55;;
24715;SDS011;12822;50.124;8.678;2022-10-16T11:02:41;4.78;;;4.20;;
24715;SDS011;12822;50.124;8.678;2022-10-16T11:07:35;59.20;;;35.00;;
24715;SDS011;12822;50.124;8.678;2022-10-16T11:10:13;11.02;;;9.18;;
24715;SDS011;12822;50.124;8.678;2022-10-16T11:12:52;30.60;;;16.02;;
24715;SDS011;12822;50.124;8.678;2022-10-16T11:15:19;11.45;;;7.60;;
24715;SDS011;12822;50.124;8.678;2022-10-16T11:17:48;7.95;;;5.45;;
24715;SDS011;12822;50.124;8.678;2022-10-16T11:20:18;13.90;;;7.25;;
24715;SDS011;12822;50.124;8.678;2022-10-16T11:22:53;6.60;;;4.15;;
24715;SDS011;12822;50.124;8.678;2022-10-16T11:25:26;7.05;;;4.70;;
24715;SDS011;12822;50.124;8.678;2022-10-16T11:35:47;7.53;;;5.65;;
24715;SDS011;12822;50.124;8.678;2022-10-16T11:40:40;9.90;;;5.90;;
24715;SDS011;12822;50.124;8.678;2022-10-16T11:43:15;8.77;;;5.60;;
24715;SDS011;12822;50.124;8.678;2022-10-16T11:45:44;11.15;;;5.55;;
24715;SDS011;12822;50.124;8.678;2022-10-16T11:48:27;9.38;;;6.30;;
24715;SDS011;12822;50.124;8.678;2022-10-16T11:50:56;10.70;;;6.55;;
24715;SDS011;12822;50.124;8.678;2022-10-16T11:53:42;10.27;;;6.20;;
24715;SDS011;12822;50.124;8.678;2022-10-16T11:56:16;9.68;;;6.50;;
24715;SDS011;12822;50.124;8.678;2022-10-16T12:01:28;8.30;;;5.80;;
24715;SDS011;12822;50.124;8.678;2022-10-16T12:08:49;5.30;;;3.60;;
24715;SDS011;12822;50.124;8.678;2022-10-16T12:16:38;9.55;;;2.40;;
24715;SDS011;12822;50.124;8.678;2022-10-16T12:19:12;5.82;;;2.25;;
24715;SDS011;12822;50.124;8.678;2022-10-16T12:21:38;6.80;;;2.03;;
24715;SDS011;12822;50.124;8.678;2022-10-16T12:24:04;4.55;;;1.90;;
24715;SDS011;12822;50.124;8.678;2022-10-16T12:26:36;3.28;;;1.95;;
24715;SDS011;12822;50.124;8.678;2022-10-16T12:31:48;3.55;;;2.15;;
24715;SDS011;12822;50.124;8.678;2022-10-16T12:34:20;5.28;;;2.13;;
24715;SDS011;12822;50.124;8.678;2022-10-16T12:36:47;5.40;;;1.85;;
24715;SDS011;12822;50.124;8.678;2022-10-16T12:39:23;3.22;;;1.77;;
24715;SDS011;12822;50.124;8.678;2022-10-16T12:42:02;7.03;;;1.90;;
24715;SDS011;12822;50.124;8.678;2022-10-16T12:44:33;4.60;;;1.70;;
24715;SDS011;12822;50.124;8.678;2022-10-16T12:47:02;2.38;;;1.40;;
24715;SDS011;12822;50.124;8.678;2022-10-16T12:51:54;3.88;;;1.52;;
24715;SDS011;12822;50.124;8.678;2022-10-16T12:59:33;3.47;;;1.55;;
24715;SDS011;12822;50.124;8.678;2022-10-16T13:07:06;2.90;;;1.65;;
24715;SDS011;12822;50.124;8.678;2022-10-16T13:09:51;5.85;;;1.88;;
24715;SDS011;12822;50.124;8.678;2022-10-16T13:14:55;2.80;;;1.50;;
24715;SDS011;12822;50.124;8.678;2022-10-16T13:17:32;4.65;;;1.48;;
24715;SDS011;12822;50.124;8.678;2022-10-16T13:27:54;3.53;;;1.40;;
24715;SDS011;12822;50.124;8.678;2022-10-16T13:30:21;1.98;;;1.42;;
24715;SDS011;12822;50.124;8.678;2022-10-16T13:32:48;2.85;;;1.42;;
24715;SDS011;12822;50.124;8.678;2022-10-16T13:35:26;5.55;;;1.70;;
24715;SDS011;12822;50.124;8.678;2022-10-16T13:40:35;4.68;;;1.70;;
24715;SDS011;12822;50.124;8.678;2022-10-16T13:43:01;3.03;;;1.50;;
24715;SDS011;12822;50.124;8.678;2022-10-16T13:45:27;5.60;;;1.70;;
24715;SDS011;12822;50.124;8.678;2022-10-16T13:48:05;3.28;;;1.35;;
24715;SDS011;12822;50.124;8.678;2022-10-16T13:50:31;1.55;;;1.20;;
24715;SDS011;12822;50.124;8.678;2022-10-16T13:53:07;6.30;;;1.40;;
24715;SDS011;12822;50.124;8.678;2022-10-16T13:55:33;2.88;;;1.35;;
24715;SDS011;12822;50.124;8.678;2022-10-16T13:58:10;3.90;;;1.48;;
24715;SDS011;12822;50.124;8.678;2022-10-16T14:00:37;2.95;;;1.40;;
24715;SDS011;12822;50.124;8.678;2022-10-16T14:03:05;4.57;;;1.30;;
24715;SDS011;12822;50.124;8.678;2022-10-16T14:05:31;1.90;;;1.33;;
24715;SDS011;12822;50.124;8.678;2022-10-16T14:07:57;2.17;;;1.40;;
24715;SDS011;12822;50.124;8.678;2022-10-16T14:10:25;3.08;;;1.33;;
24715;SDS011;12822;50.124;8.678;2022-10-16T14:12:56;1.13;;;1.02;;
24715;SDS011;12822;50.124;8.678;2022-10-16T14:15:22;1.58;;;1.45;;
24715;SDS011;12822;50.124;8.678;2022-10-16T14:17:49;2.13;;;1.40;;
24715;SDS011;12822;50.124;8.678;2022-10-16T14:20:15;2.22;;;1.60;;
24715;SDS011;12822;50.124;8.678;2022-10-16T14:22:42;5.55;;;2.17;;
24715;SDS011;12822;50.124;8.678;2022-10-16T14:27:56;4.00;;;2.60;;
24715;SDS011;12822;50.124;8.678;2022-10-16T14:30:23;3.45;;;2.00;;
24715;SDS011;12822;50.124;8.678;2022-10-16T14:32:53;4.75;;;2.45;;
24715;SDS011;12822;50.124;8.678;2022-10-16T14:35:25;2.23;;;1.87;;
24715;SDS011;12822;50.124;8.678;2022-10-16T14:37:52;4.47;;;2.40;;
24715;SDS011;12822;50.124;8.678;2022-10-16T14:40:18;4.70;;;2.15;;
24715;SDS011;12822;50.124;8.678;2022-10-16T14:42:44;6.57;;;2.33;;
24715;SDS011;12822;50.124;8.678;2022-10-16T14:45:11;5.38;;;2.55;;
24715;SDS011;12822;50.124;8.678;2022-10-16T14:47:37;5.45;;;2.45;;
24715;SDS011;12822;50.124;8.678;2022-10-16T14:50:12;5.75;;;2.55;;
24715;SDS011;12822;50.124;8.678;2022-10-16T14:52:38;3.92;;;2.50;;
24715;SDS011;12822;50.124;8.678;2022-10-16T14:55:04;5.47;;;2.55;;
24715;SDS011;12822;50.124;8.678;2022-10-16T14:57:31;6.95;;;2.35;;
24715;SDS011;12822;50.124;8.678;2022-10-16T14:59:59;4.10;;;2.08;;
24715;SDS011;12822;50.124;8.678;2022-10-16T15:02:29;4.25;;;2.40;;
24715;SDS011;12822;50.124;8.678;2022-10-16T15:04:55;8.07;;;2.40;;
24715;SDS011;12822;50.124;8.678;2022-10-16T15:07:22;3.97;;;2.72;;
24715;SDS011;12822;50.124;8.678;2022-10-16T15:09:48;4.63;;;2.97;;
24715;SDS011;12822;50.124;8.678;2022-10-16T15:12:14;5.25;;;2.55;;
24715;SDS011;12822;50.124;8.678;2022-10-16T15:14:40;9.40;;;2.70;;
24715;SDS011;12822;50.124;8.678;2022-10-16T15:17:08;4.05;;;2.47;;
24715;SDS011;12822;50.124;8.678;2022-10-16T15:19:37;4.93;;;2.60;;
24715;SDS011;12822;50.124;8.678;2022-10-16T15:22:03;5.57;;;3.05;;
24715;SDS011;12822;50.124;8.678;2022-10-16T15:24:29;7.00;;;3.00;;
24715;SDS011;12822;50.124;8.678;2022-10-16T15:26:56;6.25;;;2.80;;
24715;SDS011;12822;50.124;8.678;2022-10-16T15:29:21;6.75;;;3.10;;
24715;SDS011;12822;50.124;8.678;2022-10-16T15:31:48;6.30;;;3.20;;
24715;SDS011;12822;50.124;8.678;2022-10-16T15:34:13;5.07;;;3.30;;
24715;SDS011;12822;50.124;8.678;2022-10-16T15:36:40;5.85;;;3.60;;
24715;SDS011;12822;50.124;8.678;2022-10-16T15:39:11;5.35;;;3.45;;
24715;SDS011;12822;50.124;8.678;2022-10-16T15:41:37;5.80;;;3.45;;
24715;SDS011;12822;50.124;8.678;2022-10-16T15:44:03;9.10;;;3.65;;
24715;SDS011;12822;50.124;8.678;2022-10-16T15:46:29;4.80;;;3.63;;
24715;SDS011;12822;50.124;8.678;2022-10-16T15:48:56;7.15;;;3.38;;
24715;SDS011;12822;50.124;8.678;2022-10-16T15:51:23;7.45;;;3.70;;
24715;SDS011;12822;50.124;8.678;2022-10-16T15:53:49;8.80;;;3.53;;
24715;SDS011;12822;50.124;8.678;2022-10-16T15:56:16;6.60;;;3.60;;
24715;SDS011;12822;50.124;8.678;2022-10-16T15:58:43;10.45;;;4.13;;
24715;SDS011;12822;50.124;8.678;2022-10-16T16:01:09;6.63;;;3.90;;
24715;SDS011;12822;50.124;8.678;2022-10-16T16:03:37;6.47;;;4.30;;
24715;SDS011;12822;50.124;8.678;2022-10-16T16:06:06;5.75;;;3.88;;
24715;SDS011;12822;50.124;8.678;2022-10-16T16:08:32;5.75;;;3.60;;
24715;SDS011;12822;50.124;8.678;2022-10-16T16:11:05;6.07;;;3.30;;
24715;SDS011;12822;50.124;8.678;2022-10-16T16:13:32;7.70;;;3.58;;
24715;SDS011;12822;50.124;8.678;2022-10-16T16:16:04;10.20;;;3.50;;
24715;SDS011;12822;50.124;8.678;2022-10-16T16:18:30;6.65;;;3.25;;
24715;SDS011;12822;50.124;8.678;2022-10-16T16:20:56;6.13;;;3.25;;
24715;SDS011;12822;50.124;8.678;2022-10-16T16:23:22;10.00;;;3.58;;
24715;SDS011;12822;50.124;8.678;2022-10-16T16:26:09;6.28;;;3.65;;
24715;SDS011;12822;50.124;8.678;2022-10-16T16:28:36;5.90;;;3.63;;
24715;SDS011;12822;50.124;8.678;2022-10-16T16:31:02;8.65;;;3.60;;
24715;SDS011;12822;50.124;8.678;2022-10-16T16:33:28;8.25;;;3.63;;
24715;SDS011;12822;50.124;8.678;2022-10-16T16:35:59;9.45;;;3.45;;
24715;SDS011;12822;50.124;8.678;2022-10-16T16:38:26;7.78;;;3.70;;
24715;SDS011;12822;50.124;8.678;2022-10-16T16:40:52;10.73;;;4.07;;